createdAt,value
2023-02-25T00:01:08.449Z,10.00
2023-02-25T00:03:36.528Z,6.07
2023-02-25T00:06:04.758Z,5.30
2023-02-25T00:08:31.629Z,6.37
2023-02-25T00:11:03.484Z,6.90
2023-02-25T00:13:30.711Z,8.13
2023-02-25T00:16:00.205Z,7.40
2023-02-25T00:18:28.122Z,10.47
2023-02-25T00:20:54.880Z,6.33
2023-02-25T00:23:21.637Z,6.70
2023-02-25T00:25:48.332Z,8.33
2023-02-25T00:28:15.319Z,6.00
2023-02-25T00:30:42.750Z,5.63
2023-02-25T00:33:11.524Z,4.23
2023-02-25T00:35:41.238Z,5.57
2023-02-25T00:38:15.683Z,6.83
2023-02-25T00:40:45.097Z,5.57
2023-02-25T00:43:11.861Z,6.53
2023-02-25T00:45:42.344Z,5.90
2023-02-25T00:48:09.012Z,6.77
2023-02-25T00:50:36.306Z,6.97
2023-02-25T00:53:03.236Z,7.20
2023-02-25T00:55:33.443Z,4.13
2023-02-25T00:58:03.681Z,6.43
2023-02-25T01:00:35.952Z,5.43
2023-02-25T01:03:07.488Z,5.90
2023-02-25T01:05:34.206Z,4.07
2023-02-25T01:08:00.973Z,8.23
2023-02-25T01:10:28.401Z,4.60
2023-02-25T01:12:55.056Z,6.83
2023-02-25T01:15:21.745Z,6.13
2023-02-25T01:17:48.410Z,5.67
2023-02-25T01:20:19.883Z,7.53
2023-02-25T01:22:46.612Z,9.80
2023-02-25T01:25:16.201Z,2.40
2023-02-25T01:27:43.377Z,5.23
2023-02-25T01:30:11.830Z,3.97
2023-02-25T01:32:38.829Z,5.43
2023-02-25T01:35:05.750Z,4.50
2023-02-25T01:37:32.434Z,5.30
2023-02-25T01:39:59.084Z,2.33
2023-02-25T01:42:25.758Z,5.10
2023-02-25T01:45:22.206Z,2.57
2023-02-25T01:47:57.655Z,4.83
2023-02-25T01:50:27.133Z,3.07
2023-02-25T01:52:59.091Z,4.60
2023-02-25T01:55:25.932Z,3.73
2023-02-25T01:57:52.632Z,3.27
2023-02-25T02:00:19.673Z,4.13
2023-02-25T02:02:49.265Z,3.90
2023-02-25T02:05:16.500Z,5.30
2023-02-25T02:07:43.175Z,3.33
2023-02-25T02:10:10.585Z,2.53
2023-02-25T02:12:43.985Z,3.73
2023-02-25T02:15:13.756Z,4.80
2023-02-25T02:17:57.216Z,3.17
2023-02-25T02:20:32.232Z,4.43
2023-02-25T02:23:36.826Z,2.83
2023-02-25T02:26:33.226Z,4.87
2023-02-25T02:29:18.343Z,4.70
2023-02-25T02:32:04.211Z,3.53
2023-02-25T02:34:54.596Z,5.37
2023-02-25T02:37:58.637Z,4.67
2023-02-25T02:40:25.211Z,2.70
2023-02-25T02:42:55.302Z,3.93
2023-02-25T02:45:43.618Z,7.67
2023-02-25T02:48:15.951Z,9.30
2023-02-25T02:50:50.563Z,4.63
2023-02-25T02:53:23.227Z,4.07
2023-02-25T02:55:56.089Z,3.27
2023-02-25T02:58:31.738Z,5.60
2023-02-25T03:01:11.682Z,6.23
2023-02-25T03:03:47.060Z,6.77
2023-02-25T03:06:30.457Z,5.33
2023-02-25T03:09:07.569Z,3.20
2023-02-25T03:11:35.077Z,5.10
2023-02-25T03:14:02.155Z,3.90
2023-02-25T03:16:38.121Z,4.17
2023-02-25T03:19:35.122Z,5.87
2023-02-25T03:22:07.159Z,4.80
2023-02-25T03:24:41.992Z,6.00
2023-02-25T03:27:41.506Z,6.87
2023-02-25T03:30:34.615Z,3.70
2023-02-25T03:33:07.976Z,4.80
2023-02-25T03:35:36.649Z,6.17
2023-02-25T03:38:10.736Z,5.97
2023-02-25T03:40:40.216Z,5.10
2023-02-25T03:43:14.250Z,4.97
2023-02-25T03:45:43.397Z,5.40
2023-02-25T03:48:11.777Z,3.30
2023-02-25T03:50:47.085Z,4.37
2023-02-25T03:53:14.045Z,2.63
2023-02-25T03:55:50.777Z,3.13
2023-02-25T03:58:17.900Z,4.03
2023-02-25T04:00:47.225Z,3.23
2023-02-25T04:03:14.247Z,4.10
2023-02-25T04:05:41.070Z,3.10
2023-02-25T04:08:15.860Z,5.07
2023-02-25T04:10:43.931Z,8.13
2023-02-25T04:13:12.429Z,3.80
2023-02-25T04:15:39.315Z,5.77
2023-02-25T04:18:06.269Z,2.80
2023-02-25T04:20:34.072Z,5.27
2023-02-25T04:23:01.473Z,5.30
2023-02-25T04:25:28.517Z,7.60
2023-02-25T04:27:55.213Z,6.13
2023-02-25T04:30:21.863Z,6.80
2023-02-25T04:32:48.652Z,4.47
2023-02-25T04:35:15.549Z,9.03
2023-02-25T04:37:44.047Z,3.17
2023-02-25T04:40:15.748Z,6.63
2023-02-25T04:42:43.245Z,6.87
2023-02-25T04:45:11.391Z,6.60
2023-02-25T04:47:38.134Z,4.93
2023-02-25T04:50:06.909Z,5.70
2023-02-25T04:52:33.566Z,23.23
2023-02-25T04:55:00.229Z,11.67
2023-02-25T04:57:26.943Z,4.90
2023-02-25T04:59:53.624Z,2.77
2023-02-25T05:02:20.289Z,4.07
2023-02-25T05:04:47.063Z,3.90
2023-02-25T05:07:13.744Z,5.43
2023-02-25T05:09:40.433Z,6.20
2023-02-25T05:12:07.276Z,7.70
2023-02-25T05:14:34.914Z,3.53
2023-02-25T05:17:01.589Z,5.33
2023-02-25T05:19:28.314Z,4.90
2023-02-25T05:21:54.963Z,5.60
2023-02-25T05:24:23.524Z,6.67
2023-02-25T05:26:51.560Z,6.70
2023-02-25T05:29:18.297Z,6.40
2023-02-25T05:31:45.112Z,6.63
2023-02-25T05:34:12.124Z,6.90
2023-02-25T05:36:39.766Z,5.00
2023-02-25T05:39:06.538Z,4.33
2023-02-25T05:41:33.204Z,5.20
2023-02-25T05:43:59.925Z,5.67
2023-02-25T05:46:27.174Z,8.33
2023-02-25T05:48:54.304Z,2.97
2023-02-25T05:51:23.405Z,11.20
2023-02-25T05:53:51.819Z,8.20
2023-02-25T05:56:21.921Z,7.07
2023-02-25T05:58:49.128Z,10.80
2023-02-25T06:01:18.507Z,3.83
2023-02-25T06:03:47.191Z,4.73
2023-02-25T06:06:15.161Z,7.70
2023-02-25T06:08:44.708Z,6.97
2023-02-25T06:11:15.732Z,5.83
2023-02-25T06:13:42.512Z,6.67
2023-02-25T06:16:09.220Z,6.20
2023-02-25T06:18:39.694Z,3.80
2023-02-25T06:21:08.335Z,7.53
2023-02-25T06:23:36.556Z,4.50
2023-02-25T06:26:04.844Z,8.10
2023-02-25T06:28:31.791Z,4.00
2023-02-25T06:30:58.456Z,10.20
2023-02-25T06:33:25.246Z,4.77
2023-02-25T06:35:53.953Z,5.57
2023-02-25T06:38:21.417Z,4.90
2023-02-25T06:40:49.595Z,5.57
2023-02-25T06:43:17.501Z,7.27
2023-02-25T06:45:44.611Z,6.03
2023-02-25T06:48:11.311Z,7.23
2023-02-25T06:50:41.556Z,4.10
2023-02-25T06:53:09.052Z,5.93
2023-02-25T06:55:38.004Z,7.00
2023-02-25T06:58:04.672Z,6.33
2023-02-25T07:00:31.615Z,9.17
2023-02-25T07:02:58.339Z,4.93
2023-02-25T07:05:25.142Z,3.93
2023-02-25T07:07:51.779Z,4.60
2023-02-25T07:10:18.482Z,3.37
2023-02-25T07:12:45.140Z,5.37
2023-02-25T07:15:11.832Z,5.57
2023-02-25T07:17:38.571Z,3.93
2023-02-25T07:20:05.743Z,5.13
2023-02-25T07:22:32.417Z,7.97
2023-02-25T07:24:59.164Z,5.50
2023-02-25T07:27:25.938Z,6.43
2023-02-25T07:29:52.586Z,2.73
2023-02-25T07:32:19.351Z,6.97
2023-02-25T07:34:46.199Z,4.87
2023-02-25T07:37:12.843Z,2.00
2023-02-25T07:39:39.574Z,4.27
2023-02-25T07:42:06.272Z,5.60
2023-02-25T07:44:35.919Z,6.90
2023-02-25T07:47:02.606Z,3.07
2023-02-25T07:49:29.304Z,4.60
2023-02-25T07:51:55.942Z,2.60
2023-02-25T07:54:23.326Z,4.43
2023-02-25T07:56:51.375Z,5.87
2023-02-25T07:59:18.997Z,7.17
2023-02-25T08:01:45.704Z,3.80
2023-02-25T08:04:12.478Z,5.53
2023-02-25T08:06:40.997Z,3.90
2023-02-25T08:09:11.112Z,6.53
2023-02-25T08:11:39.410Z,6.10
2023-02-25T08:14:06.215Z,11.60
2023-02-25T08:16:33.635Z,5.00
2023-02-25T08:19:00.485Z,6.43
2023-02-25T08:21:27.302Z,4.27
2023-02-25T08:23:54.746Z,3.40
2023-02-25T08:26:23.071Z,5.67
2023-02-25T08:28:51.727Z,3.03
2023-02-25T08:31:19.573Z,6.83
2023-02-25T08:33:49.325Z,3.80
2023-02-25T08:36:20.447Z,6.40
2023-02-25T08:38:47.434Z,4.40
2023-02-25T08:41:14.374Z,4.03
2023-02-25T08:43:41.403Z,5.53
2023-02-25T08:46:09.761Z,6.33
2023-02-25T08:48:37.088Z,8.03
2023-02-25T08:51:08.957Z,3.50
2023-02-25T08:53:40.369Z,5.53
2023-02-25T08:56:09.033Z,3.70
2023-02-25T08:58:36.565Z,3.93
2023-02-25T09:01:12.999Z,4.23
2023-02-25T09:03:52.583Z,4.77
2023-02-25T09:06:27.967Z,3.00
2023-02-25T09:08:56.282Z,4.47
2023-02-25T09:11:24.065Z,7.87
2023-02-25T09:13:52.225Z,6.07
2023-02-25T09:16:20.015Z,3.13
2023-02-25T09:18:47.908Z,4.60
2023-02-25T09:21:15.167Z,5.10
2023-02-25T09:23:42.462Z,4.47
2023-02-25T09:26:09.266Z,5.60
2023-02-25T09:28:36.731Z,5.27
2023-02-25T09:31:04.183Z,4.10
2023-02-25T09:33:33.079Z,6.03
2023-02-25T09:36:08.402Z,5.30
2023-02-25T09:38:39.239Z,4.43
2023-02-25T09:41:24.633Z,5.10
2023-02-25T09:44:03.480Z,5.13
2023-02-25T09:46:32.258Z,8.63
2023-02-25T09:49:12.076Z,4.07
2023-02-25T09:51:45.679Z,8.53
2023-02-25T09:54:37.924Z,11.53
2023-02-25T09:57:06.157Z,10.47
2023-02-25T09:59:32.928Z,7.20
2023-02-25T10:02:16.338Z,4.20
2023-02-25T10:05:14.749Z,7.80
2023-02-25T10:07:56.688Z,7.03
2023-02-25T10:10:37.234Z,7.67
2023-02-25T10:13:22.650Z,10.93
2023-02-25T10:16:31.811Z,5.77
2023-02-25T10:19:31.437Z,5.30
2023-02-25T10:22:07.019Z,5.23
2023-02-25T10:24:45.268Z,4.10
2023-02-25T10:27:33.817Z,3.43
2023-02-25T10:30:06.840Z,4.20
2023-02-25T10:32:39.324Z,7.33
2023-02-25T10:35:18.614Z,6.33
2023-02-25T10:37:45.632Z,5.77
2023-02-25T10:40:16.261Z,8.77
2023-02-25T10:42:54.164Z,3.03
2023-02-25T10:45:32.261Z,6.77
2023-02-25T10:48:18.767Z,6.90
2023-02-25T10:51:01.010Z,3.27
2023-02-25T10:53:27.663Z,7.30
2023-02-25T10:55:55.012Z,3.63
2023-02-25T10:58:57.593Z,4.37
2023-02-25T11:01:24.922Z,4.20
2023-02-25T11:03:59.303Z,3.40
2023-02-25T11:06:37.043Z,6.23
2023-02-25T11:09:29.027Z,8.70
2023-02-25T11:11:58.733Z,4.13
2023-02-25T11:14:33.547Z,5.00
2023-02-25T11:17:09.172Z,4.87
2023-02-25T11:19:42.380Z,3.07
2023-02-25T11:22:29.654Z,5.50
2023-02-25T11:25:02.627Z,4.97
2023-02-25T11:27:41.455Z,4.23
2023-02-25T11:30:14.050Z,6.30
2023-02-25T11:32:55.674Z,7.83
2023-02-25T11:35:35.516Z,5.90
2023-02-25T11:38:31.943Z,9.30
2023-02-25T11:40:58.721Z,6.00
2023-02-25T11:43:32.035Z,6.77
2023-02-25T11:46:17.129Z,6.60
2023-02-25T11:49:05.848Z,9.27
2023-02-25T11:52:05.369Z,8.27
2023-02-25T11:54:46.985Z,7.30
2023-02-25T11:57:28.835Z,9.13
2023-02-25T12:00:11.410Z,9.63
2023-02-25T12:02:58.412Z,5.07
2023-02-25T12:05:53.098Z,3.57
2023-02-25T12:08:40.777Z,8.23
2023-02-25T12:11:10.148Z,5.83
2023-02-25T12:13:56.731Z,10.93
2023-02-25T12:17:00.277Z,18.27
2023-02-25T12:20:04.816Z,7.97
2023-02-25T12:22:45.172Z,5.03
2023-02-25T12:25:31.753Z,7.30
2023-02-25T12:28:27.630Z,5.90
2023-02-25T12:31:39.375Z,4.53
2023-02-25T12:34:18.255Z,6.60
2023-02-25T12:36:52.243Z,5.37
2023-02-25T12:39:46.752Z,7.60
2023-02-25T12:42:30.816Z,9.20
2023-02-25T12:45:06.190Z,4.90
2023-02-25T12:47:41.712Z,5.97
2023-02-25T12:50:28.002Z,6.50
2023-02-25T12:53:20.468Z,4.27
2023-02-25T12:55:47.133Z,2.10
2023-02-25T12:58:41.720Z,11.20
2023-02-25T13:01:37.156Z,6.77
2023-02-25T13:04:28.401Z,7.00
2023-02-25T13:07:14.388Z,5.50
2023-02-25T13:10:16.979Z,1.90
2023-02-25T13:13:22.027Z,4.47
2023-02-25T13:16:33.075Z,3.20
2023-02-25T13:19:18.584Z,5.20
2023-02-25T13:21:52.944Z,3.43
2023-02-25T13:25:13.382Z,5.27
2023-02-25T13:28:10.278Z,9.20
2023-02-25T13:31:03.757Z,3.47
2023-02-25T13:33:38.271Z,5.57
2023-02-25T13:36:31.172Z,5.60
2023-02-25T13:39:38.011Z,5.57
2023-02-25T13:42:25.984Z,3.67
2023-02-25T13:45:23.839Z,7.30
2023-02-25T13:48:14.797Z,6.20
2023-02-25T13:51:06.280Z,3.73
2023-02-25T13:54:14.553Z,3.03
2023-02-25T13:57:11.540Z,4.33
2023-02-25T14:00:04.141Z,6.13
2023-02-25T14:03:02.899Z,3.03
2023-02-25T14:06:08.386Z,3.20
2023-02-25T14:09:06.589Z,5.40
2023-02-25T14:12:11.550Z,5.63
2023-02-25T14:15:12.546Z,5.00
2023-02-25T14:17:48.187Z,7.97
2023-02-25T14:20:23.017Z,5.43
2023-02-25T14:23:00.814Z,4.73
2023-02-25T14:25:48.338Z,1.77
2023-02-25T14:28:42.176Z,4.93
2023-02-25T14:31:27.191Z,3.37
2023-02-25T14:34:19.157Z,2.10
2023-02-25T14:36:52.202Z,4.03
2023-02-25T14:39:28.945Z,4.87
2023-02-25T14:42:14.895Z,2.20
2023-02-25T14:45:10.235Z,3.47
2023-02-25T14:47:50.459Z,4.73
2023-02-25T14:50:32.183Z,4.40
2023-02-25T14:53:27.834Z,4.47
2023-02-25T14:56:15.745Z,4.53
2023-02-25T14:59:11.600Z,4.93
2023-02-25T15:02:04.379Z,6.07
2023-02-25T15:04:35.526Z,5.77
2023-02-25T15:07:08.720Z,2.20
2023-02-25T15:09:38.226Z,3.13
2023-02-25T15:12:13.408Z,10.97
2023-02-25T15:15:08.308Z,3.10
2023-02-25T15:18:01.299Z,3.53
2023-02-25T15:20:40.177Z,1.50
2023-02-25T15:23:09.930Z,1.93
2023-02-25T15:25:49.776Z,1.67
2023-02-25T15:28:31.541Z,2.73
2023-02-25T15:31:01.553Z,2.90
2023-02-25T15:33:41.468Z,2.50
2023-02-25T15:36:14.199Z,3.10
2023-02-25T15:38:41.113Z,2.00
2023-02-25T15:41:38.306Z,4.10
2023-02-25T15:44:08.029Z,7.40
2023-02-25T15:46:34.837Z,2.87
2023-02-25T15:49:25.474Z,3.17
2023-02-25T15:51:55.021Z,2.00
2023-02-25T15:54:30.684Z,3.97
2023-02-25T15:57:04.812Z,2.70
2023-02-25T15:59:47.953Z,2.20
2023-02-25T16:02:27.036Z,4.80
2023-02-25T16:04:58.048Z,1.90
2023-02-25T16:07:32.437Z,2.70
2023-02-25T16:10:03.484Z,2.57
2023-02-25T16:12:30.468Z,2.77
2023-02-25T16:14:58.921Z,2.37
2023-02-25T16:17:35.984Z,3.20
2023-02-25T16:20:22.573Z,2.47
2023-02-25T16:22:57.024Z,4.07
2023-02-25T16:25:34.518Z,3.47
2023-02-25T16:28:15.909Z,3.50
2023-02-25T16:30:59.198Z,2.63
2023-02-25T16:33:39.887Z,6.27
2023-02-25T16:36:41.638Z,3.37
2023-02-25T16:39:17.682Z,4.37
2023-02-25T16:41:44.964Z,3.10
2023-02-25T16:44:21.601Z,4.17
2023-02-25T16:46:51.580Z,2.50
2023-02-25T16:49:28.561Z,5.43
2023-02-25T16:51:56.047Z,3.90
2023-02-25T16:54:28.851Z,3.37
2023-02-25T16:57:00.004Z,7.03
2023-02-25T16:59:31.542Z,4.47
2023-02-25T17:02:02.718Z,5.50
2023-02-25T17:04:38.048Z,7.20
2023-02-25T17:07:12.667Z,5.47
2023-02-25T17:09:50.940Z,4.33
2023-02-25T17:12:45.460Z,2.90
2023-02-25T17:15:19.551Z,4.73
2023-02-25T17:17:48.938Z,5.63
2023-02-25T17:20:25.012Z,11.47
2023-02-25T17:22:52.351Z,10.03
2023-02-25T17:25:19.812Z,16.63
2023-02-25T17:27:49.718Z,13.40
2023-02-25T17:30:42.508Z,5.93
2023-02-25T17:33:28.132Z,5.07
2023-02-25T17:36:17.765Z,7.10
2023-02-25T17:38:45.465Z,13.90
2023-02-25T17:41:19.944Z,5.43
2023-02-25T17:43:46.772Z,4.17
2023-02-25T17:46:17.351Z,7.30
2023-02-25T17:48:51.844Z,7.33
2023-02-25T17:51:27.057Z,6.13
2023-02-25T17:54:27.091Z,3.43
2023-02-25T17:57:06.408Z,6.03
2023-02-25T17:59:39.318Z,4.80
2023-02-25T18:02:29.393Z,5.63
2023-02-25T18:05:18.333Z,3.97
2023-02-25T18:08:01.150Z,5.83
2023-02-25T18:10:30.777Z,6.13
2023-02-25T18:12:59.002Z,6.50
2023-02-25T18:15:30.758Z,5.43
2023-02-25T18:18:01.341Z,6.37
2023-02-25T18:20:42.204Z,8.37
2023-02-25T18:23:21.042Z,7.10
2023-02-25T18:26:15.442Z,6.10
2023-02-25T18:28:42.340Z,7.37
2023-02-25T18:31:09.809Z,6.13
2023-02-25T18:33:36.728Z,8.53
2023-02-25T18:36:07.822Z,7.63
2023-02-25T18:38:37.511Z,2.83
2023-02-25T18:41:07.918Z,10.23
2023-02-25T18:43:39.863Z,9.50
2023-02-25T18:46:06.589Z,5.17
2023-02-25T18:48:35.253Z,14.70
2023-02-25T18:51:03.130Z,22.17
2023-02-25T18:53:29.856Z,6.83
2023-02-25T18:55:57.866Z,6.87
2023-02-25T18:58:24.953Z,4.67
2023-02-25T19:00:56.887Z,3.53
2023-02-25T19:03:31.619Z,9.20
2023-02-25T19:05:58.970Z,7.80
2023-02-25T19:08:25.786Z,11.00
2023-02-25T19:10:53.663Z,15.33
2023-02-25T19:13:26.099Z,40.70
2023-02-25T19:15:52.819Z,66.80
2023-02-25T19:18:19.780Z,41.37
2023-02-25T19:20:46.565Z,38.87
2023-02-25T19:23:15.898Z,30.90
2023-02-25T19:25:43.861Z,19.83
2023-02-25T19:28:11.278Z,17.27
2023-02-25T19:30:41.374Z,15.60
2023-02-25T19:33:09.735Z,30.33
2023-02-25T19:35:39.546Z,8.97
2023-02-25T19:38:08.420Z,9.53
2023-02-25T19:40:36.425Z,8.57
2023-02-25T19:43:04.758Z,8.20
2023-02-25T19:45:32.267Z,8.03
2023-02-25T19:47:59.765Z,9.60
2023-02-25T19:50:26.773Z,9.10
2023-02-25T19:52:54.959Z,8.27
2023-02-25T19:55:22.635Z,5.93
2023-02-25T19:57:49.357Z,8.00
2023-02-25T20:00:22.605Z,7.03
2023-02-25T20:02:51.144Z,7.00
2023-02-25T20:05:17.945Z,5.13
2023-02-25T20:07:44.733Z,5.27
2023-02-25T20:10:13.591Z,5.47
2023-02-25T20:12:41.439Z,7.33
2023-02-25T20:15:09.489Z,3.70
2023-02-25T20:17:40.368Z,5.60
2023-02-25T20:20:08.373Z,2.50
2023-02-25T20:22:35.954Z,3.93
2023-02-25T20:25:03.235Z,2.60
2023-02-25T20:27:29.873Z,3.20
2023-02-25T20:29:56.648Z,7.23
2023-02-25T20:32:23.363Z,3.90
2023-02-25T20:34:50.194Z,5.37
2023-02-25T20:37:23.016Z,8.00
2023-02-25T20:39:58.342Z,2.80
2023-02-25T20:42:30.066Z,5.07
2023-02-25T20:44:58.187Z,3.63
2023-02-25T20:47:36.040Z,5.07
2023-02-25T20:50:04.193Z,2.20
2023-02-25T20:52:31.424Z,4.10
2023-02-25T20:54:58.225Z,4.00
2023-02-25T20:57:26.841Z,4.13
2023-02-25T20:59:54.066Z,6.27
2023-02-25T21:02:21.023Z,3.97
2023-02-25T21:04:48.128Z,6.13
2023-02-25T21:07:15.206Z,8.17
2023-02-25T21:09:42.086Z,3.43
2023-02-25T21:12:09.245Z,5.17
2023-02-25T21:14:36.134Z,3.87
2023-02-25T21:17:03.534Z,2.87
2023-02-25T21:19:30.271Z,4.67
2023-02-25T21:21:56.940Z,3.43
2023-02-25T21:24:23.874Z,4.33
2023-02-25T21:26:50.852Z,4.77
2023-02-25T21:29:17.891Z,3.07
2023-02-25T21:31:45.423Z,5.37
2023-02-25T21:34:13.905Z,3.10
2023-02-25T21:36:41.729Z,7.10
2023-02-25T21:39:09.675Z,6.27
2023-02-25T21:41:37.945Z,3.97
2023-02-25T21:44:04.956Z,4.27
2023-02-25T21:46:31.723Z,4.50
2023-02-25T21:48:59.447Z,5.23
2023-02-25T21:51:27.660Z,12.47
2023-02-25T21:53:59.474Z,5.30
2023-02-25T21:56:27.153Z,3.20
2023-02-25T21:59:02.044Z,2.00
2023-02-25T22:01:34.425Z,4.87
2023-02-25T22:04:01.348Z,4.77
2023-02-25T22:06:28.610Z,5.67
2023-02-25T22:08:56.524Z,5.17
2023-02-25T22:11:29.080Z,4.03
2023-02-25T22:13:55.863Z,14.13
2023-02-25T22:16:23.586Z,5.83
2023-02-25T22:18:51.131Z,3.63
2023-02-25T22:21:24.025Z,2.40
2023-02-25T22:23:53.277Z,2.80
2023-02-25T22:26:23.541Z,4.30
2023-02-25T22:28:54.833Z,1.93
2023-02-25T22:31:22.136Z,3.53
2023-02-25T22:33:49.043Z,4.47
2023-02-25T22:36:17.433Z,1.33
2023-02-25T22:38:45.590Z,2.47
2023-02-25T22:41:18.629Z,4.30
2023-02-25T22:43:46.184Z,8.80
2023-02-25T22:46:15.757Z,4.83
2023-02-25T22:48:44.888Z,5.17
2023-02-25T22:51:12.513Z,4.77
2023-02-25T22:53:40.611Z,3.53
2023-02-25T22:56:09.317Z,4.27
2023-02-25T22:58:38.740Z,3.37
2023-02-25T23:01:06.671Z,3.63
2023-02-25T23:03:33.439Z,3.37
2023-02-25T23:06:00.600Z,3.17
2023-02-25T23:08:27.443Z,4.33
2023-02-25T23:10:54.212Z,3.57
2023-02-25T23:13:21.268Z,3.30
2023-02-25T23:15:48.151Z,2.80
2023-02-25T23:18:15.595Z,5.73
2023-02-25T23:20:42.684Z,2.20
2023-02-25T23:23:09.537Z,4.47
2023-02-25T23:25:39.706Z,5.17
2023-02-25T23:28:08.306Z,2.97
2023-02-25T23:30:38.985Z,1.10
2023-02-25T23:33:06.303Z,2.63
2023-02-25T23:35:33.827Z,7.07
2023-02-25T23:38:00.781Z,1.40
2023-02-25T23:40:28.806Z,4.67
2023-02-25T23:42:55.750Z,4.87
2023-02-25T23:45:22.696Z,3.30
2023-02-25T23:47:49.538Z,5.03
2023-02-25T23:50:16.876Z,3.53
2023-02-25T23:52:44.783Z,2.10
2023-02-25T23:55:12.355Z,4.63
2023-02-25T23:57:39.276Z,1.27
